METAR AND TAF INFORMATION
METAR FOR KCRQ
ADDS - METARS form results

(1125 UTC 29 September 2020)
Data provider http://aviationweather.gov/metar/data/
 
METAR text: KCRQ 291053Z AUTO 00000KT 1/4SM R24/1200V5500FT FG VV001 18/18 A2994 RMK AO2 SLP135 T01830178
Conditions at: KCRQ (CARLSBAD , CA, US) observed 1053 UTC 29 September 2020
Temperature: 18.3°C (65°F)
Dewpoint: 17.8°C (64°F) [RH = 97%]
Pressure (altimeter): 29.94 inches Hg (1014.0 mb)
[Sea-level pressure: 1013.5 mb]
Winds: calm
Visibility: 0.25 miles (0.40 km)
Ceiling: indefinite ceiling with vertical visibility of 100 feet AGL
Clouds: obscured sky
Weather: FG  (fog)

METAR text: KCRQ 291045Z AUTO 00000KT 1/2SM R24/1400V4500FT FG VV001 18/18 A2994 RMK AO2 T01830178
Conditions at: KCRQ (CARLSBAD , CA, US) observed 1045 UTC 29 September 2020
Temperature: 18.3°C (65°F)
Dewpoint: 17.8°C (64°F) [RH = 97%]
Pressure (altimeter): 29.94 inches Hg (1014.0 mb)
Winds: calm
Visibility: 0.50 miles (0.80 km)
Ceiling: indefinite ceiling with vertical visibility of 100 feet AGL
Clouds: obscured sky
Weather: FG  (fog)

METAR text: KCRQ 291033Z AUTO 00000KT 1/2SM R24/1600V5000FT FG VV002 19/18 A2994 RMK AO2 T01890178
Conditions at: KCRQ (CARLSBAD , CA, US) observed 1033 UTC 29 September 2020
Temperature: 18.9°C (66°F)
Dewpoint: 17.8°C (64°F) [RH = 93%]
Pressure (altimeter): 29.94 inches Hg (1014.0 mb)
Winds: calm
Visibility: 0.50 miles (0.80 km)
Ceiling: indefinite ceiling with vertical visibility of 200 feet AGL
Clouds: obscured sky
Weather: FG  (fog)

Forecast for: KCRQ (CARLSBAD , CA, US)
Text: KCRQ 291009Z 2910/3006 VRB03KT 1SM BR OVC002
Forecast period: 1000 to 1200 UTC 29 September 2020
Forecast type: FROM: standard forecast or significant change
Winds: variable direction winds at 3 MPH (3 knots; 1.5 m/s)
Visibility: 1.00 miles (1.61 km)
Ceiling: 200 feet AGL
Clouds: overcast cloud deck at 200 feet AGL
Weather: BR  (mist)
Text: FM291200 VRB03KT 3SM BR OVC003
Forecast period: 1200 to 1300 UTC 29 September 2020
Forecast type: FROM: standard forecast or significant change
Winds: variable direction winds at 3 MPH (3 knots; 1.5 m/s)
Visibility: 3 miles (5 km)
Ceiling: 300 feet AGL
Clouds: overcast cloud deck at 300 feet AGL
Weather: BR  (mist)
Text: FM291300 VRB03KT P6SM SCT004
Forecast period: 1300 to 1600 UTC 29 September 2020
Forecast type: FROM: standard forecast or significant change
Winds: variable direction winds at 3 MPH (3 knots; 1.5 m/s)
Visibility: 6 or more miles (10+ km)
Ceiling: at least 12,000 feet AGL
Clouds: scattered clouds at 400 feet AGL
Weather: no significant weather forecast for this period
Text: FM291600 30005KT P6SM SKC
Forecast period: 1600 to 2000 UTC 29 September 2020
Forecast type: FROM: standard forecast or significant change
Winds: from the WNW (300 degrees) at 6 MPH (5 knots; 2.6 m/s)
Visibility: 6 or more miles (10+ km)
Clouds: clear skies
Weather: no significant weather forecast for this period
Text: FM292000 28008KT P6SM SKC
Forecast period: 2000 UTC 29 September 2020 to 0300 UTC 30 September 2020
Forecast type: FROM: standard forecast or significant change
Winds: from the W (280 degrees) at 9 MPH (8 knots; 4.1 m/s)
Visibility: 6 or more miles (10+ km)
Clouds: clear skies
Weather: no significant weather forecast for this period
Text: FM300300 VRB03KT P6SM SKC
Forecast period: 0300 to 0600 UTC 30 September 2020
Forecast type: FROM: standard forecast or significant change
Winds: variable direction winds at 3 MPH (3 knots; 1.5 m/s)
Visibility: 6 or more miles (10+ km)
Clouds: clear skies
Weather: no significant weather forecast for this period

 AIRPORT MAP

 RUNWAY INFORMATION
Runway 06 Runway length 4897 ft Runway width 150 ft
Runway elevation 331 ft Runway displaced threshold 297 ft Runway heading 79
Runway 24 Runway length 4897 ft Runway width 150 ft
Runway elevation 326 ft Runway displaced threshold 0 ft Runway heading 259

 AIRPORT FREQUENCIES
Type A/D Name SOCAL APP/ Frequency 127.3 MHZ
Type ATIS Name ATIS Frequency 120.15 MHZ
Type CLD Name CLNC DEL Frequency 134.85 MHZ
Type CTAF Name CTAF Frequency 118.6 MHZ
Type GND Name GND Frequency 121.8 MHZ
Type RDO Name SAN DIEGO Frequency 115.3 MHZ
Type TWR Name TWR Frequency 118.6 MHZ

 AIRPORT NEAR NAVIGATION AIDS